Terminal Aerodrome Forecast
Issued by NWS

Home | Current Version | Previous Version | Text Only | Print | Product List | Glossary On
Versions: 1 2 3 4 5 6 7 8 9 10 11 12 13 14 15
000
FTUS46 KMTR 300904 AAA
TAFOAK
TAF AMD
KOAK 300904Z 3009/3112 31007KT P6SM OVC007
     FM301700 29008KT P6SM FEW010
     FM302100 30015KT P6SM FEW010 SCT250
     FM310500 30010KT P6SM BKN008=

USA.gov is the U.S. government's official web portal to all federal, state and local government web resources and services.